createdAt,value
2024-03-16T00:02:43.643Z,1.25
2024-03-16T00:09:26.541Z,1.00
2024-03-16T00:16:09.157Z,3.03
2024-03-16T00:22:51.705Z,12.43
2024-03-16T00:29:34.565Z,1.75
2024-03-16T00:36:18.193Z,1.25
2024-03-16T00:43:01.182Z,0.90
2024-03-16T00:49:43.719Z,1.27
2024-03-16T00:56:26.372Z,0.70
2024-03-16T01:03:09.952Z,0.90
2024-03-16T01:09:52.773Z,9.52
2024-03-16T01:16:35.921Z,8.85
2024-03-16T01:23:18.425Z,1.88
2024-03-16T01:30:02.012Z,0.80
2024-03-16T01:36:44.639Z,0.95
2024-03-16T01:43:28.475Z,1.10
2024-03-16T01:50:10.996Z,0.77
2024-03-16T01:56:53.702Z,2.83
2024-03-16T02:03:36.634Z,1.10
2024-03-16T02:10:19.537Z,0.68
2024-03-16T02:17:03.691Z,0.77
2024-03-16T02:23:47.512Z,0.70
2024-03-16T02:30:30.113Z,0.60
2024-03-16T02:37:12.857Z,0.93
2024-03-16T02:43:55.815Z,0.98
2024-03-16T02:50:39.206Z,0.90
2024-03-16T02:57:23.041Z,1.05
2024-03-16T03:04:06.221Z,0.90
2024-03-16T03:10:49.268Z,0.80
2024-03-16T03:17:31.930Z,0.85
2024-03-16T03:24:14.842Z,0.90
2024-03-16T03:30:57.456Z,0.82
2024-03-16T03:37:40.074Z,0.80
2024-03-16T03:44:24.748Z,0.88
2024-03-16T03:51:07.350Z,0.70
2024-03-16T03:57:51.031Z,0.70
2024-03-16T04:04:34.437Z,0.77
2024-03-16T04:11:17.253Z,0.80
2024-03-16T04:17:59.917Z,1.00
2024-03-16T04:24:42.673Z,0.82
2024-03-16T04:31:25.271Z,1.10
2024-03-16T04:38:10.148Z,1.25
2024-03-16T04:44:52.813Z,1.30
2024-03-16T04:51:35.543Z,1.15
2024-03-16T04:58:18.398Z,1.42
2024-03-16T05:05:01.052Z,1.20
2024-03-16T05:11:45.104Z,0.90
2024-03-16T05:18:27.702Z,1.10
2024-03-16T05:25:10.497Z,1.20
2024-03-16T05:32:00.247Z,1.35
2024-03-16T05:38:49.400Z,1.35
2024-03-16T05:45:31.966Z,1.30
2024-03-16T05:52:14.621Z,1.10
2024-03-16T05:58:58.029Z,1.17
2024-03-16T06:05:42.728Z,1.30
2024-03-16T06:12:28.070Z,1.83
2024-03-16T06:19:13.296Z,1.30
2024-03-16T06:26:04.308Z,1.27
2024-03-16T06:33:05.623Z,1.38
2024-03-16T06:39:48.394Z,1.98
2024-03-16T06:46:33.070Z,1.40
2024-03-16T06:53:15.902Z,1.80
2024-03-16T06:59:58.432Z,1.55
2024-03-16T07:06:42.185Z,1.48
2024-03-16T07:13:25.324Z,1.00
2024-03-16T07:20:11.500Z,1.10
2024-03-16T07:26:54.496Z,1.08
2024-03-16T07:33:37.239Z,1.20
2024-03-16T07:40:22.584Z,0.98
2024-03-16T07:47:05.274Z,1.10
2024-03-16T07:53:47.884Z,1.05
2024-03-16T08:00:30.596Z,0.88
2024-03-16T08:07:13.782Z,1.40
2024-03-16T08:13:56.781Z,1.50
2024-03-16T08:20:39.334Z,1.30
2024-03-16T08:27:23.891Z,1.65
2024-03-16T08:34:09.937Z,1.50
2024-03-16T08:40:52.760Z,1.55
2024-03-16T08:47:35.855Z,1.55
2024-03-16T08:54:18.654Z,1.73
2024-03-16T09:01:02.149Z,1.30
2024-03-16T09:07:44.884Z,1.10
2024-03-16T09:14:27.725Z,1.13
2024-03-16T09:21:10.401Z,1.13
2024-03-16T09:27:53.140Z,1.10
2024-03-16T09:34:35.904Z,0.80
2024-03-16T09:41:52.697Z,1.02
2024-03-16T09:48:58.961Z,0.90
2024-03-16T09:55:42.378Z,1.27
2024-03-16T10:02:25.095Z,0.82
2024-03-16T10:09:11.161Z,0.90
2024-03-16T10:15:59.980Z,0.80
2024-03-16T10:22:47.037Z,0.80
2024-03-16T10:29:29.890Z,0.75
2024-03-16T10:36:19.204Z,0.80
2024-03-16T10:43:03.872Z,0.90
2024-03-16T10:49:50.019Z,0.70
2024-03-16T10:56:33.382Z,0.68
2024-03-16T11:03:28.656Z,1.00
2024-03-16T11:10:32.773Z,0.63
2024-03-16T11:17:27.551Z,0.70
2024-03-16T11:24:16.712Z,0.98
2024-03-16T11:31:19.304Z,0.80
2024-03-16T11:38:01.958Z,0.70
2024-03-16T11:44:47.863Z,0.70
2024-03-16T11:51:30.586Z,0.82
2024-03-16T11:58:16.223Z,0.80
2024-03-16T12:05:00.818Z,0.90
2024-03-16T12:11:47.371Z,0.98
2024-03-16T12:18:31.953Z,1.00
2024-03-16T12:25:15.223Z,0.90
2024-03-16T12:31:58.101Z,0.85
2024-03-16T12:38:40.750Z,0.70
2024-03-16T12:45:23.712Z,1.08
2024-03-16T12:52:08.194Z,0.77
2024-03-16T12:58:51.012Z,0.65
2024-03-16T13:05:33.906Z,1.02
2024-03-16T13:12:16.917Z,0.80
2024-03-16T13:19:00.286Z,0.95
2024-03-16T13:25:44.596Z,1.10
2024-03-16T13:32:28.143Z,1.20
2024-03-16T13:39:10.967Z,1.20
2024-03-16T13:45:53.869Z,1.30
2024-03-16T13:52:36.819Z,1.17
2024-03-16T13:59:19.935Z,1.48
2024-03-16T14:06:02.630Z,1.20
2024-03-16T14:12:54.669Z,1.10
2024-03-16T14:19:37.511Z,1.10
2024-03-16T14:26:19.926Z,0.90
2024-03-16T14:33:02.548Z,0.80
2024-03-16T14:39:45.715Z,0.60
2024-03-16T14:46:28.534Z,0.80
2024-03-16T14:53:11.033Z,0.90
2024-03-16T14:59:53.613Z,1.10
2024-03-16T15:06:37.654Z,0.60
2024-03-16T15:13:20.118Z,1.00
2024-03-16T15:20:04.598Z,0.90
2024-03-16T15:26:54.352Z,1.13
2024-03-16T15:33:37.705Z,1.23
2024-03-16T15:40:20.585Z,2.40
2024-03-16T15:47:03.392Z,1.00
2024-03-16T15:53:47.381Z,0.95
2024-03-16T16:00:29.980Z,1.63
2024-03-16T16:07:13.189Z,1.85
2024-03-16T16:13:56.166Z,2.72
2024-03-16T16:20:39.311Z,4.88
2024-03-16T16:27:22.155Z,2.83
2024-03-16T16:34:05.722Z,1.98
2024-03-16T16:40:48.913Z,1.55
2024-03-16T16:47:31.593Z,1.40
2024-03-16T16:54:14.210Z,1.90
2024-03-16T17:00:56.837Z,2.30
2024-03-16T17:07:39.439Z,1.75
2024-03-16T17:14:22.034Z,1.77
2024-03-16T17:21:04.803Z,2.30
2024-03-16T17:27:47.894Z,5.00
2024-03-16T17:34:30.572Z,2.03
2024-03-16T17:41:13.485Z,2.00
2024-03-16T17:47:56.337Z,2.35
2024-03-16T17:54:39.513Z,1.92
2024-03-16T18:01:24.122Z,2.63
2024-03-16T18:08:08.354Z,3.72
2024-03-16T18:14:53.441Z,3.13
2024-03-16T18:21:36.218Z,3.50
2024-03-16T18:28:20.171Z,4.57
2024-03-16T18:35:02.779Z,5.10
2024-03-16T18:41:45.517Z,4.47
2024-03-16T18:48:29.203Z,4.60
2024-03-16T18:55:12.210Z,5.18
2024-03-16T19:01:55.520Z,5.68
2024-03-16T19:08:39.860Z,5.10
2024-03-16T19:15:23.034Z,4.80
2024-03-16T19:22:06.160Z,5.03
2024-03-16T19:28:50.233Z,5.32
2024-03-16T19:35:35.878Z,5.05
2024-03-16T19:42:20.347Z,4.45
2024-03-16T19:49:03.313Z,5.38
2024-03-16T19:55:46.815Z,4.82
2024-03-16T20:02:30.009Z,4.45
2024-03-16T20:09:13.981Z,4.82
2024-03-16T20:15:57.065Z,4.72
2024-03-16T20:22:46.594Z,4.82
2024-03-16T20:29:29.985Z,4.63
2024-03-16T20:36:14.488Z,4.47
2024-03-16T20:42:57.200Z,4.07
2024-03-16T20:49:39.912Z,4.82
2024-03-16T20:56:22.935Z,4.95
2024-03-16T21:03:06.923Z,5.30
2024-03-16T21:09:50.044Z,6.38
2024-03-16T21:16:33.070Z,6.57
2024-03-16T21:23:16.558Z,5.80
2024-03-16T21:29:59.682Z,5.57
2024-03-16T21:36:43.433Z,6.65
2024-03-16T21:43:26.932Z,7.57
2024-03-16T21:50:10.765Z,6.78
2024-03-16T21:56:54.054Z,8.05
2024-03-16T22:03:36.802Z,6.18
2024-03-16T22:10:21.542Z,7.88
2024-03-16T22:17:04.369Z,8.25
2024-03-16T22:23:47.903Z,7.97
2024-03-16T22:30:30.610Z,9.25
2024-03-16T22:37:13.726Z,7.68
2024-03-16T22:43:56.807Z,9.13
2024-03-16T22:50:39.426Z,8.23
2024-03-16T22:57:24.764Z,8.85
2024-03-16T23:04:07.558Z,8.18
2024-03-16T23:10:50.555Z,7.95
2024-03-16T23:17:33.078Z,9.55
2024-03-16T23:24:15.682Z,8.57
2024-03-16T23:30:59.166Z,9.35
2024-03-16T23:37:41.762Z,9.35
2024-03-16T23:44:27.637Z,9.45
2024-03-16T23:51:10.170Z,9.32
2024-03-16T23:57:53.021Z,9.13
